»·PEaware :: N9401L KRAL-KRNM

N9401L :: KRAL-KRNM

FLIGHT INFORMATION

Flight Status: Arrived
Operator: Privately registered:
United States
More flights under this callsign
Pilot: Dusty S. (32100)
Aircraft: CESSNA 172 SKYHAWK
(C172)
More flights by this aircraft type
Origin: KRAL Riverside Mun
United States
Destination: KRNM Ramona
United States
More flights between these airports :: More routes between these airports
Route: +
File this flight plan on PilotEdge
Remarks:
Altitude:
(Current/Filed)
7,500ft
Speed:
(Current/Filed)
0kts
Departed: 19-Oct-20 11:21 AM
Arrived: 19-Oct-20 12:40 PM
Distance/Time
Traveled:
61nm/1:19
Distance/Time
To Go:
Arrived

Flight Plot

Page will automatically refresh every two minutes.


Map Options




Map Legend


Flown Route
Filed Route
Departure Airport
Arrival Airport
Navaid (VOR, NDB)
Fix

Horizontal Profiles

Position Reports

Time Latitude Longitude Heading Altitude Ground
Speed
19-Oct-20 11:08 33.951415 -117.446064 104 770ft 0kts
19-Oct-20 11:09 33.951415 -117.446064 104 770ft 0kts
19-Oct-20 11:10 33.951355 -117.444852 103 775ft 8kts
19-Oct-20 11:11 33.951312 -117.442633 100 787ft 15kts
19-Oct-20 11:12 33.950130 -117.436561 102 812ft 12kts
19-Oct-20 11:13 33.949946 -117.435080 39 814ft 0kts
19-Oct-20 11:14 33.949946 -117.435079 39 814ft 0kts
19-Oct-20 11:15 33.949946 -117.435079 39 814ft 0kts
19-Oct-20 11:16 33.949947 -117.435079 39 814ft 0kts
19-Oct-20 11:17 33.949947 -117.435079 39 814ft 0kts
19-Oct-20 11:18 33.949947 -117.435079 39 814ft 0kts
19-Oct-20 11:19 33.949947 -117.435079 39 814ft 0kts
19-Oct-20 11:20 33.950793 -117.436083 284 815ft 44kts
19-Oct-20 11:21 33.953208 -117.462748 261 1718ft 81kts
19-Oct-20 11:22 33.933725 -117.462834 165 2730ft 78kts
19-Oct-20 11:23 33.933257 -117.462693 165 2754ft 77kts
19-Oct-20 11:41 33.951415 -117.446064 104 770ft 0kts
19-Oct-20 11:41 33.951415 -117.446064 104 770ft 0kts
19-Oct-20 11:43 33.951415 -117.446064 104 770ft 0kts
19-Oct-20 11:43 33.951415 -117.446064 104 770ft 0kts
19-Oct-20 11:45 33.951415 -117.446064 104 770ft 0kts
19-Oct-20 11:45 33.951415 -117.446064 104 770ft 0kts
19-Oct-20 11:46 33.951415 -117.446064 104 770ft 0kts
19-Oct-20 11:47 33.951271 -117.444455 103 776ft 16kts
19-Oct-20 11:48 33.950722 -117.439635 102 801ft 22kts
19-Oct-20 11:49 33.949973 -117.435065 32 814ft 0kts
19-Oct-20 11:50 33.949974 -117.435065 31 814ft 0kts
19-Oct-20 11:51 33.949973 -117.435065 31 814ft 0kts
19-Oct-20 11:52 33.950049 -117.435009 31 814ft 4kts
19-Oct-20 11:53 33.953007 -117.451956 255 1327ft 79kts
19-Oct-20 11:54 33.933800 -117.444359 147 2421ft 77kts
19-Oct-20 11:55 33.913311 -117.431264 150 3430ft 80kts
19-Oct-20 11:56 33.894522 -117.417520 153 4312ft 82kts
19-Oct-20 11:57 33.872530 -117.403674 155 5243ft 82kts
19-Oct-20 11:58 33.851284 -117.392476 165 6038ft 84kts
19-Oct-20 11:59 33.829376 -117.382590 157 6770ft 86kts
19-Oct-20 12:00 33.808350 -117.369693 150 7475ft 86kts
19-Oct-20 12:01 33.787875 -117.352672 150 7612ft 94kts
19-Oct-20 12:02 33.763731 -117.335371 149 7531ft 98kts
19-Oct-20 12:03 33.741194 -117.318807 158 7423ft 91kts
19-Oct-20 12:04 33.719589 -117.306404 143 7434ft 80kts
19-Oct-20 12:05 33.698728 -117.295567 162 7435ft 83kts
19-Oct-20 12:06 33.678136 -117.283976 150 7546ft 86kts
19-Oct-20 12:07 33.655093 -117.270399 157 7518ft 102kts
19-Oct-20 12:08 33.628847 -117.254942 153 7450ft 104kts
19-Oct-20 12:09 33.603457 -117.241409 163 7452ft 96kts
19-Oct-20 12:10 33.579251 -117.231323 157 7467ft 94kts
19-Oct-20 12:11 33.554222 -117.219299 155 7492ft 92kts
19-Oct-20 12:12 33.530749 -117.206190 154 7502ft 93kts
19-Oct-20 12:17 33.411341 -117.142602 151 7604ft 85kts
19-Oct-20 12:18 33.386725 -117.128984 164 7511ft 96kts
19-Oct-20 12:19 33.361430 -117.116090 158 7494ft 96kts
19-Oct-20 12:20 33.334878 -117.106251 160 7478ft 96kts
19-Oct-20 12:21 33.309003 -117.093265 170 7398ft 102kts
19-Oct-20 12:22 33.280097 -117.096563 195 6902ft 100kts
19-Oct-20 12:23 33.251362 -117.100349 180 6397ft 100kts
19-Oct-20 12:24 33.222511 -117.098639 175 5905ft 100kts
19-Oct-20 12:25 33.193206 -117.094077 172 5403ft 99kts
19-Oct-20 12:26 33.164749 -117.089684 178 4938ft 98kts
19-Oct-20 12:27 33.136693 -117.092051 195 4468ft 97kts
19-Oct-20 12:28 33.108850 -117.097483 185 3925ft 102kts
19-Oct-20 12:29 33.079924 -117.092605 168 3352ft 103kts
19-Oct-20 12:30 33.052911 -117.080782 115 2423ft 98kts
19-Oct-20 12:31 33.051158 -117.047779 91 2350ft 91kts
19-Oct-20 12:32 33.048656 -117.016926 103 2535ft 96kts
19-Oct-20 12:33 33.047802 -116.983542 85 2524ft 110kts
19-Oct-20 12:34 33.050526 -116.951166 87 2379ft 90kts
19-Oct-20 12:35 33.051805 -116.922886 85 2344ft 82kts
19-Oct-20 12:36 33.052193 -116.897070 86 2428ft 78kts
19-Oct-20 12:37 33.043696 -116.880231 196 2230ft 69kts
19-Oct-20 12:38 33.036493 -116.896183 274 1773ft 64kts
19-Oct-20 12:39 33.038940 -116.912374 311 1392ft 9kts
19-Oct-20 12:40 33.039878 -116.911369 91 1394ft 0kts
19-Oct-20 12:41 33.039878 -116.911369 91 1394ft 0kts

Navigation Log

Ident Type
Flight plan parsing failed, navigation log unavailable